sensor_id;sensor_type;location;lat;lon;timestamp;P1;durP1;ratioP1;P2;durP2;ratioP2
18695;SDS011;22617;43.690;27.956;2023-08-20T00:04:41;14.30;;;9.85;;
18695;SDS011;22617;43.690;27.956;2023-08-20T00:09:49;10.70;;;8.48;;
18695;SDS011;22617;43.690;27.956;2023-08-20T00:14:54;10.38;;;8.15;;
18695;SDS011;22617;43.690;27.956;2023-08-20T00:20:02;11.63;;;8.57;;
18695;SDS011;22617;43.690;27.956;2023-08-20T00:25:12;11.52;;;8.07;;
18695;SDS011;22617;43.690;27.956;2023-08-20T00:30:16;12.68;;;8.48;;
18695;SDS011;22617;43.690;27.956;2023-08-20T00:35:22;11.60;;;8.07;;
18695;SDS011;22617;43.690;27.956;2023-08-20T00:40:25;11.45;;;7.95;;
18695;SDS011;22617;43.690;27.956;2023-08-20T00:45:29;10.10;;;7.85;;
18695;SDS011;22617;43.690;27.956;2023-08-20T00:50:35;11.75;;;8.23;;
18695;SDS011;22617;43.690;27.956;2023-08-20T00:55:39;9.80;;;7.82;;
18695;SDS011;22617;43.690;27.956;2023-08-20T01:00:42;13.32;;;8.65;;
18695;SDS011;22617;43.690;27.956;2023-08-20T01:05:49;14.07;;;8.00;;
18695;SDS011;22617;43.690;27.956;2023-08-20T01:10:57;9.35;;;7.47;;
18695;SDS011;22617;43.690;27.956;2023-08-20T01:16:08;10.15;;;7.82;;
18695;SDS011;22617;43.690;27.956;2023-08-20T01:21:17;13.32;;;8.90;;
18695;SDS011;22617;43.690;27.956;2023-08-20T01:26:39;14.40;;;8.85;;
18695;SDS011;22617;43.690;27.956;2023-08-20T01:31:55;9.30;;;7.60;;
18695;SDS011;22617;43.690;27.956;2023-08-20T01:37:00;16.38;;;9.48;;
18695;SDS011;22617;43.690;27.956;2023-08-20T01:42:04;14.05;;;9.18;;
18695;SDS011;22617;43.690;27.956;2023-08-20T01:47:09;13.90;;;9.32;;
18695;SDS011;22617;43.690;27.956;2023-08-20T01:52:13;13.10;;;9.15;;
18695;SDS011;22617;43.690;27.956;2023-08-20T01:57:16;14.80;;;9.75;;
18695;SDS011;22617;43.690;27.956;2023-08-20T02:02:21;13.85;;;9.60;;
18695;SDS011;22617;43.690;27.956;2023-08-20T02:07:25;16.33;;;9.27;;
18695;SDS011;22617;43.690;27.956;2023-08-20T02:12:29;11.98;;;9.27;;
18695;SDS011;22617;43.690;27.956;2023-08-20T02:17:34;12.55;;;9.18;;
18695;SDS011;22617;43.690;27.956;2023-08-20T02:22:39;10.00;;;8.10;;
18695;SDS011;22617;43.690;27.956;2023-08-20T02:27:43;10.93;;;7.85;;
18695;SDS011;22617;43.690;27.956;2023-08-20T02:32:48;15.27;;;8.55;;
18695;SDS011;22617;43.690;27.956;2023-08-20T02:37:52;11.43;;;8.40;;
18695;SDS011;22617;43.690;27.956;2023-08-20T02:42:55;13.38;;;8.13;;
18695;SDS011;22617;43.690;27.956;2023-08-20T02:48:00;10.95;;;8.98;;
18695;SDS011;22617;43.690;27.956;2023-08-20T02:53:04;11.95;;;8.70;;
18695;SDS011;22617;43.690;27.956;2023-08-20T02:58:07;9.80;;;7.88;;
18695;SDS011;22617;43.690;27.956;2023-08-20T03:03:13;11.25;;;8.40;;
18695;SDS011;22617;43.690;27.956;2023-08-20T03:08:18;10.63;;;8.30;;
18695;SDS011;22617;43.690;27.956;2023-08-20T03:13:22;11.25;;;7.85;;
18695;SDS011;22617;43.690;27.956;2023-08-20T03:18:27;8.73;;;7.72;;
18695;SDS011;22617;43.690;27.956;2023-08-20T03:23:30;9.32;;;7.65;;
18695;SDS011;22617;43.690;27.956;2023-08-20T03:28:34;10.15;;;8.25;;
18695;SDS011;22617;43.690;27.956;2023-08-20T03:33:39;11.07;;;8.20;;
18695;SDS011;22617;43.690;27.956;2023-08-20T03:38:42;13.82;;;8.80;;
18695;SDS011;22617;43.690;27.956;2023-08-20T03:43:46;12.32;;;8.50;;
18695;SDS011;22617;43.690;27.956;2023-08-20T03:48:51;12.85;;;8.05;;
18695;SDS011;22617;43.690;27.956;2023-08-20T03:53:55;12.50;;;8.75;;
18695;SDS011;22617;43.690;27.956;2023-08-20T03:58:58;17.65;;;9.70;;
18695;SDS011;22617;43.690;27.956;2023-08-20T04:04:04;11.85;;;8.90;;
18695;SDS011;22617;43.690;27.956;2023-08-20T04:09:07;14.55;;;9.18;;
18695;SDS011;22617;43.690;27.956;2023-08-20T04:14:13;17.42;;;8.95;;
18695;SDS011;22617;43.690;27.956;2023-08-20T04:19:19;13.48;;;8.73;;
18695;SDS011;22617;43.690;27.956;2023-08-20T04:24:22;12.70;;;9.48;;
18695;SDS011;22617;43.690;27.956;2023-08-20T04:29:26;13.80;;;9.07;;
18695;SDS011;22617;43.690;27.956;2023-08-20T04:34:31;14.75;;;9.00;;
18695;SDS011;22617;43.690;27.956;2023-08-20T04:39:35;17.05;;;9.60;;
18695;SDS011;22617;43.690;27.956;2023-08-20T04:44:39;14.25;;;8.85;;
18695;SDS011;22617;43.690;27.956;2023-08-20T04:49:44;12.57;;;8.68;;
18695;SDS011;22617;43.690;27.956;2023-08-20T04:54:48;14.10;;;9.35;;
18695;SDS011;22617;43.690;27.956;2023-08-20T04:59:55;25.63;;;8.93;;
18695;SDS011;22617;43.690;27.956;2023-08-20T05:05:18;15.98;;;8.27;;
18695;SDS011;22617;43.690;27.956;2023-08-20T05:10:24;14.98;;;8.93;;
18695;SDS011;22617;43.690;27.956;2023-08-20T05:15:27;23.02;;;8.38;;
18695;SDS011;22617;43.690;27.956;2023-08-20T05:20:32;24.33;;;8.57;;
18695;SDS011;22617;43.690;27.956;2023-08-20T05:25:36;17.80;;;8.60;;
18695;SDS011;22617;43.690;27.956;2023-08-20T05:30:39;13.48;;;7.65;;
18695;SDS011;22617;43.690;27.956;2023-08-20T05:35:45;14.88;;;7.80;;
18695;SDS011;22617;43.690;27.956;2023-08-20T05:40:48;8.63;;;7.63;;
18695;SDS011;22617;43.690;27.956;2023-08-20T05:45:52;12.85;;;7.38;;
18695;SDS011;22617;43.690;27.956;2023-08-20T05:50:59;10.90;;;7.30;;
18695;SDS011;22617;43.690;27.956;2023-08-20T05:56:03;13.00;;;6.95;;
18695;SDS011;22617;43.690;27.956;2023-08-20T06:01:06;9.70;;;6.93;;
18695;SDS011;22617;43.690;27.956;2023-08-20T06:06:11;8.38;;;7.00;;
18695;SDS011;22617;43.690;27.956;2023-08-20T06:11:15;11.50;;;6.47;;
18695;SDS011;22617;43.690;27.956;2023-08-20T06:16:18;11.85;;;7.03;;
18695;SDS011;22617;43.690;27.956;2023-08-20T06:21:23;8.63;;;6.72;;
18695;SDS011;22617;43.690;27.956;2023-08-20T06:26:27;12.70;;;6.85;;
18695;SDS011;22617;43.690;27.956;2023-08-20T06:31:30;11.43;;;6.75;;
18695;SDS011;22617;43.690;27.956;2023-08-20T06:36:36;12.57;;;6.72;;
18695;SDS011;22617;43.690;27.956;2023-08-20T06:41:39;9.80;;;6.85;;
18695;SDS011;22617;43.690;27.956;2023-08-20T06:46:53;11.65;;;6.35;;
18695;SDS011;22617;43.690;27.956;2023-08-20T06:51:58;8.70;;;6.43;;
18695;SDS011;22617;43.690;27.956;2023-08-20T06:57:02;9.65;;;6.65;;
18695;SDS011;22617;43.690;27.956;2023-08-20T07:02:06;8.95;;;6.85;;
18695;SDS011;22617;43.690;27.956;2023-08-20T07:07:11;11.68;;;6.45;;
18695;SDS011;22617;43.690;27.956;2023-08-20T07:12:16;8.70;;;6.63;;
18695;SDS011;22617;43.690;27.956;2023-08-20T07:17:20;12.70;;;6.85;;
18695;SDS011;22617;43.690;27.956;2023-08-20T07:22:25;11.48;;;6.78;;
18695;SDS011;22617;43.690;27.956;2023-08-20T07:27:29;11.15;;;6.03;;
18695;SDS011;22617;43.690;27.956;2023-08-20T07:32:32;10.32;;;6.70;;
18695;SDS011;22617;43.690;27.956;2023-08-20T07:37:37;9.77;;;6.45;;
18695;SDS011;22617;43.690;27.956;2023-08-20T07:42:41;14.90;;;6.60;;
18695;SDS011;22617;43.690;27.956;2023-08-20T07:47:45;8.98;;;5.90;;
18695;SDS011;22617;43.690;27.956;2023-08-20T07:52:50;12.10;;;6.90;;
18695;SDS011;22617;43.690;27.956;2023-08-20T07:57:53;15.98;;;7.57;;
18695;SDS011;22617;43.690;27.956;2023-08-20T08:02:57;7.65;;;6.00;;
18695;SDS011;22617;43.690;27.956;2023-08-20T08:08:02;9.32;;;5.88;;
18695;SDS011;22617;43.690;27.956;2023-08-20T08:13:06;9.90;;;5.72;;
18695;SDS011;22617;43.690;27.956;2023-08-20T08:18:12;4.78;;;4.30;;
18695;SDS011;22617;43.690;27.956;2023-08-20T08:23:17;9.35;;;5.28;;
18695;SDS011;22617;43.690;27.956;2023-08-20T08:28:20;7.32;;;4.97;;
18695;SDS011;22617;43.690;27.956;2023-08-20T08:33:24;6.45;;;5.75;;
18695;SDS011;22617;43.690;27.956;2023-08-20T08:38:29;8.93;;;5.65;;
18695;SDS011;22617;43.690;27.956;2023-08-20T08:43:33;11.07;;;4.63;;
18695;SDS011;22617;43.690;27.956;2023-08-20T08:48:36;6.20;;;4.30;;
18695;SDS011;22617;43.690;27.956;2023-08-20T08:53:44;5.03;;;4.00;;
18695;SDS011;22617;43.690;27.956;2023-08-20T08:58:49;8.68;;;4.03;;
18695;SDS011;22617;43.690;27.956;2023-08-20T09:03:53;5.88;;;3.72;;
18695;SDS011;22617;43.690;27.956;2023-08-20T09:09:05;7.28;;;2.85;;
18695;SDS011;22617;43.690;27.956;2023-08-20T09:14:10;4.97;;;2.35;;
18695;SDS011;22617;43.690;27.956;2023-08-20T09:19:24;2.97;;;2.10;;
18695;SDS011;22617;43.690;27.956;2023-08-20T09:24:40;6.40;;;3.20;;
18695;SDS011;22617;43.690;27.956;2023-08-20T09:29:45;5.78;;;2.60;;
18695;SDS011;22617;43.690;27.956;2023-08-20T09:34:50;5.07;;;2.90;;
18695;SDS011;22617;43.690;27.956;2023-08-20T09:39:56;7.53;;;3.17;;
18695;SDS011;22617;43.690;27.956;2023-08-20T09:44:59;3.58;;;2.30;;
18695;SDS011;22617;43.690;27.956;2023-08-20T09:50:07;3.85;;;2.47;;
18695;SDS011;22617;43.690;27.956;2023-08-20T09:55:20;3.95;;;2.20;;
18695;SDS011;22617;43.690;27.956;2023-08-20T10:00:25;3.60;;;2.45;;
18695;SDS011;22617;43.690;27.956;2023-08-20T10:05:30;4.13;;;2.60;;
18695;SDS011;22617;43.690;27.956;2023-08-20T10:10:37;4.78;;;2.67;;
18695;SDS011;22617;43.690;27.956;2023-08-20T10:15:41;5.30;;;2.75;;
18695;SDS011;22617;43.690;27.956;2023-08-20T10:20:49;5.07;;;2.50;;
18695;SDS011;22617;43.690;27.956;2023-08-20T10:25:55;3.88;;;2.80;;
18695;SDS011;22617;43.690;27.956;2023-08-20T10:31:10;4.00;;;2.50;;
18695;SDS011;22617;43.690;27.956;2023-08-20T10:36:15;7.80;;;2.20;;
18695;SDS011;22617;43.690;27.956;2023-08-20T10:41:26;4.20;;;2.90;;
18695;SDS011;22617;43.690;27.956;2023-08-20T10:46:30;4.90;;;2.70;;
18695;SDS011;22617;43.690;27.956;2023-08-20T10:51:36;5.00;;;2.53;;
18695;SDS011;22617;43.690;27.956;2023-08-20T10:56:43;4.82;;;2.70;;
18695;SDS011;22617;43.690;27.956;2023-08-20T11:01:48;7.10;;;2.50;;
18695;SDS011;22617;43.690;27.956;2023-08-20T11:06:53;4.82;;;2.92;;
18695;SDS011;22617;43.690;27.956;2023-08-20T11:11:59;4.05;;;2.42;;
18695;SDS011;22617;43.690;27.956;2023-08-20T11:17:03;5.30;;;2.60;;
18695;SDS011;22617;43.690;27.956;2023-08-20T11:22:06;4.72;;;2.78;;
18695;SDS011;22617;43.690;27.956;2023-08-20T11:27:12;6.45;;;2.78;;
18695;SDS011;22617;43.690;27.956;2023-08-20T11:32:16;5.22;;;2.97;;
18695;SDS011;22617;43.690;27.956;2023-08-20T11:37:20;4.55;;;2.63;;
18695;SDS011;22617;43.690;27.956;2023-08-20T11:42:25;6.28;;;3.00;;
18695;SDS011;22617;43.690;27.956;2023-08-20T11:47:29;14.82;;;3.13;;
18695;SDS011;22617;43.690;27.956;2023-08-20T11:52:33;9.38;;;2.92;;
18695;SDS011;22617;43.690;27.956;2023-08-20T11:57:38;5.57;;;2.47;;
18695;SDS011;22617;43.690;27.956;2023-08-20T12:02:42;6.15;;;2.30;;
18695;SDS011;22617;43.690;27.956;2023-08-20T12:07:54;6.55;;;2.50;;
18695;SDS011;22617;43.690;27.956;2023-08-20T12:13:00;6.22;;;2.35;;
18695;SDS011;22617;43.690;27.956;2023-08-20T12:18:05;4.90;;;2.63;;
18695;SDS011;22617;43.690;27.956;2023-08-20T12:23:10;6.03;;;2.70;;
18695;SDS011;22617;43.690;27.956;2023-08-20T12:28:16;5.80;;;2.63;;
18695;SDS011;22617;43.690;27.956;2023-08-20T12:33:19;6.72;;;2.67;;
18695;SDS011;22617;43.690;27.956;2023-08-20T12:38:23;8.70;;;2.53;;
18695;SDS011;22617;43.690;27.956;2023-08-20T12:43:29;4.68;;;2.30;;
18695;SDS011;22617;43.690;27.956;2023-08-20T12:48:32;5.95;;;2.58;;
18695;SDS011;22617;43.690;27.956;2023-08-20T12:53:36;9.07;;;2.78;;
18695;SDS011;22617;43.690;27.956;2023-08-20T12:58:42;3.55;;;2.42;;
18695;SDS011;22617;43.690;27.956;2023-08-20T13:03:46;4.05;;;2.60;;
18695;SDS011;22617;43.690;27.956;2023-08-20T13:08:51;6.82;;;2.60;;
18695;SDS011;22617;43.690;27.956;2023-08-20T13:13:57;9.07;;;2.60;;
18695;SDS011;22617;43.690;27.956;2023-08-20T13:19:01;6.47;;;2.78;;
18695;SDS011;22617;43.690;27.956;2023-08-20T13:24:05;10.45;;;2.85;;
18695;SDS011;22617;43.690;27.956;2023-08-20T13:29:12;6.60;;;2.50;;
18695;SDS011;22617;43.690;27.956;2023-08-20T13:34:15;6.40;;;2.75;;
18695;SDS011;22617;43.690;27.956;2023-08-20T13:39:19;6.38;;;2.85;;
18695;SDS011;22617;43.690;27.956;2023-08-20T13:44:24;8.23;;;2.53;;
18695;SDS011;22617;43.690;27.956;2023-08-20T13:49:27;5.40;;;2.45;;
18695;SDS011;22617;43.690;27.956;2023-08-20T13:54:31;6.55;;;2.35;;
18695;SDS011;22617;43.690;27.956;2023-08-20T13:59:36;5.35;;;2.67;;
18695;SDS011;22617;43.690;27.956;2023-08-20T14:04:40;6.05;;;2.60;;
18695;SDS011;22617;43.690;27.956;2023-08-20T14:09:44;9.02;;;2.50;;
18695;SDS011;22617;43.690;27.956;2023-08-20T14:14:49;7.00;;;2.90;;
18695;SDS011;22617;43.690;27.956;2023-08-20T14:19:52;8.80;;;3.22;;
18695;SDS011;22617;43.690;27.956;2023-08-20T14:24:56;6.63;;;2.67;;
18695;SDS011;22617;43.690;27.956;2023-08-20T14:30:00;5.85;;;2.88;;
18695;SDS011;22617;43.690;27.956;2023-08-20T14:35:05;7.07;;;3.38;;
18695;SDS011;22617;43.690;27.956;2023-08-20T14:40:09;6.47;;;2.17;;
18695;SDS011;22617;43.690;27.956;2023-08-20T14:45:15;7.35;;;2.80;;
18695;SDS011;22617;43.690;27.956;2023-08-20T14:50:19;6.03;;;2.70;;
18695;SDS011;22617;43.690;27.956;2023-08-20T14:55:22;5.60;;;2.50;;
18695;SDS011;22617;43.690;27.956;2023-08-20T15:00:28;8.25;;;2.85;;
18695;SDS011;22617;43.690;27.956;2023-08-20T15:05:31;10.65;;;2.70;;
18695;SDS011;22617;43.690;27.956;2023-08-20T15:10:35;9.40;;;2.72;;
18695;SDS011;22617;43.690;27.956;2023-08-20T15:15:40;7.55;;;2.65;;
18695;SDS011;22617;43.690;27.956;2023-08-20T15:20:43;7.95;;;2.80;;
18695;SDS011;22617;43.690;27.956;2023-08-20T15:25:47;8.13;;;2.92;;
18695;SDS011;22617;43.690;27.956;2023-08-20T15:30:52;9.65;;;2.45;;
18695;SDS011;22617;43.690;27.956;2023-08-20T15:35:56;6.05;;;3.05;;
18695;SDS011;22617;43.690;27.956;2023-08-20T15:41:01;7.20;;;3.10;;
18695;SDS011;22617;43.690;27.956;2023-08-20T15:46:06;7.40;;;3.05;;
18695;SDS011;22617;43.690;27.956;2023-08-20T15:51:09;6.80;;;2.60;;
18695;SDS011;22617;43.690;27.956;2023-08-20T15:56:13;6.28;;;3.08;;
18695;SDS011;22617;43.690;27.956;2023-08-20T16:01:18;6.25;;;2.60;;
18695;SDS011;22617;43.690;27.956;2023-08-20T16:06:21;6.50;;;2.80;;
18695;SDS011;22617;43.690;27.956;2023-08-20T16:11:25;5.13;;;2.58;;
18695;SDS011;22617;43.690;27.956;2023-08-20T16:16:30;10.45;;;3.00;;
18695;SDS011;22617;43.690;27.956;2023-08-20T16:21:33;8.10;;;2.83;;
18695;SDS011;22617;43.690;27.956;2023-08-20T16:26:37;7.50;;;3.47;;
18695;SDS011;22617;43.690;27.956;2023-08-20T16:31:42;6.47;;;2.80;;
18695;SDS011;22617;43.690;27.956;2023-08-20T16:36:45;7.20;;;2.70;;
18695;SDS011;22617;43.690;27.956;2023-08-20T16:41:49;13.77;;;3.20;;
18695;SDS011;22617;43.690;27.956;2023-08-20T16:46:54;6.80;;;2.80;;
18695;SDS011;22617;43.690;27.956;2023-08-20T16:51:58;7.90;;;2.70;;
18695;SDS011;22617;43.690;27.956;2023-08-20T16:57:01;9.35;;;2.72;;
18695;SDS011;22617;43.690;27.956;2023-08-20T17:02:07;10.70;;;2.90;;
18695;SDS011;22617;43.690;27.956;2023-08-20T17:07:10;9.40;;;2.83;;
18695;SDS011;22617;43.690;27.956;2023-08-20T17:12:14;6.32;;;2.80;;
18695;SDS011;22617;43.690;27.956;2023-08-20T17:17:20;5.25;;;3.28;;
18695;SDS011;22617;43.690;27.956;2023-08-20T17:22:24;5.38;;;2.67;;
18695;SDS011;22617;43.690;27.956;2023-08-20T17:27:28;8.63;;;2.78;;
18695;SDS011;22617;43.690;27.956;2023-08-20T17:32:32;7.30;;;2.60;;
18695;SDS011;22617;43.690;27.956;2023-08-20T17:43:06;5.65;;;3.40;;
18695;SDS011;22617;43.690;27.956;2023-08-20T17:48:12;6.38;;;3.50;;
18695;SDS011;22617;43.690;27.956;2023-08-20T17:53:17;4.40;;;3.10;;
18695;SDS011;22617;43.690;27.956;2023-08-20T17:58:20;8.05;;;3.17;;
18695;SDS011;22617;43.690;27.956;2023-08-20T18:03:25;5.80;;;2.88;;
18695;SDS011;22617;43.690;27.956;2023-08-20T18:08:29;7.25;;;3.28;;
18695;SDS011;22617;43.690;27.956;2023-08-20T18:13:33;7.35;;;2.97;;
18695;SDS011;22617;43.690;27.956;2023-08-20T18:18:38;9.05;;;3.75;;
18695;SDS011;22617;43.690;27.956;2023-08-20T18:23:42;8.50;;;3.50;;
18695;SDS011;22617;43.690;27.956;2023-08-20T18:28:45;8.07;;;3.20;;
18695;SDS011;22617;43.690;27.956;2023-08-20T18:33:50;6.38;;;3.08;;
18695;SDS011;22617;43.690;27.956;2023-08-20T18:38:54;7.07;;;3.20;;
18695;SDS011;22617;43.690;27.956;2023-08-20T18:43:57;7.60;;;3.67;;
18695;SDS011;22617;43.690;27.956;2023-08-20T18:49:05;7.65;;;3.65;;
18695;SDS011;22617;43.690;27.956;2023-08-20T18:54:09;4.13;;;3.30;;
18695;SDS011;22617;43.690;27.956;2023-08-20T18:59:15;5.43;;;3.13;;
18695;SDS011;22617;43.690;27.956;2023-08-20T19:04:21;6.28;;;3.17;;
18695;SDS011;22617;43.690;27.956;2023-08-20T19:09:26;7.13;;;3.50;;
18695;SDS011;22617;43.690;27.956;2023-08-20T19:14:29;7.97;;;3.53;;
18695;SDS011;22617;43.690;27.956;2023-08-20T19:19:34;6.45;;;3.90;;
18695;SDS011;22617;43.690;27.956;2023-08-20T19:24:38;6.47;;;4.07;;
18695;SDS011;22617;43.690;27.956;2023-08-20T19:29:41;5.68;;;3.88;;
18695;SDS011;22617;43.690;27.956;2023-08-20T19:34:46;7.18;;;3.67;;
18695;SDS011;22617;43.690;27.956;2023-08-20T19:39:50;7.25;;;4.05;;
18695;SDS011;22617;43.690;27.956;2023-08-20T19:44:54;10.85;;;3.97;;
18695;SDS011;22617;43.690;27.956;2023-08-20T19:49:59;9.95;;;4.20;;
18695;SDS011;22617;43.690;27.956;2023-08-20T19:55:04;6.60;;;3.67;;
18695;SDS011;22617;43.690;27.956;2023-08-20T20:00:10;7.20;;;4.13;;
18695;SDS011;22617;43.690;27.956;2023-08-20T20:05:20;12.43;;;4.15;;
18695;SDS011;22617;43.690;27.956;2023-08-20T20:10:24;9.88;;;4.60;;
18695;SDS011;22617;43.690;27.956;2023-08-20T20:15:28;6.65;;;4.07;;
18695;SDS011;22617;43.690;27.956;2023-08-20T20:20:32;8.25;;;4.38;;
18695;SDS011;22617;43.690;27.956;2023-08-20T20:25:37;11.10;;;4.20;;
18695;SDS011;22617;43.690;27.956;2023-08-20T20:30:44;6.63;;;4.20;;
18695;SDS011;22617;43.690;27.956;2023-08-20T20:35:52;5.65;;;3.78;;
18695;SDS011;22617;43.690;27.956;2023-08-20T20:40:56;6.28;;;4.60;;
18695;SDS011;22617;43.690;27.956;2023-08-20T20:45:59;9.35;;;4.75;;
18695;SDS011;22617;43.690;27.956;2023-08-20T20:51:04;7.70;;;4.47;;
18695;SDS011;22617;43.690;27.956;2023-08-20T20:56:08;7.28;;;4.20;;
18695;SDS011;22617;43.690;27.956;2023-08-20T21:01:12;6.78;;;4.15;;
18695;SDS011;22617;43.690;27.956;2023-08-20T21:06:17;6.90;;;4.10;;
18695;SDS011;22617;43.690;27.956;2023-08-20T21:11:20;8.35;;;4.55;;
18695;SDS011;22617;43.690;27.956;2023-08-20T21:16:24;9.18;;;5.28;;
18695;SDS011;22617;43.690;27.956;2023-08-20T21:21:28;7.15;;;4.65;;
18695;SDS011;22617;43.690;27.956;2023-08-20T21:26:32;10.98;;;4.50;;
18695;SDS011;22617;43.690;27.956;2023-08-20T21:37:05;7.57;;;4.10;;
18695;SDS011;22617;43.690;27.956;2023-08-20T21:42:09;7.40;;;4.35;;
18695;SDS011;22617;43.690;27.956;2023-08-20T21:47:19;8.70;;;4.53;;
18695;SDS011;22617;43.690;27.956;2023-08-20T21:52:25;8.10;;;4.63;;
18695;SDS011;22617;43.690;27.956;2023-08-20T21:57:29;7.50;;;4.30;;
18695;SDS011;22617;43.690;27.956;2023-08-20T22:02:33;8.05;;;4.60;;
18695;SDS011;22617;43.690;27.956;2023-08-20T22:07:38;7.47;;;4.53;;
18695;SDS011;22617;43.690;27.956;2023-08-20T22:12:42;9.82;;;4.85;;
18695;SDS011;22617;43.690;27.956;2023-08-20T22:17:46;6.82;;;4.25;;
18695;SDS011;22617;43.690;27.956;2023-08-20T22:22:51;7.25;;;4.60;;
18695;SDS011;22617;43.690;27.956;2023-08-20T22:27:54;5.47;;;4.22;;
18695;SDS011;22617;43.690;27.956;2023-08-20T22:32:58;6.43;;;4.82;;
18695;SDS011;22617;43.690;27.956;2023-08-20T22:38:05;7.65;;;4.35;;
18695;SDS011;22617;43.690;27.956;2023-08-20T22:43:09;10.30;;;4.43;;
18695;SDS011;22617;43.690;27.956;2023-08-20T22:48:12;6.18;;;4.00;;
18695;SDS011;22617;43.690;27.956;2023-08-20T22:53:17;6.75;;;4.50;;
18695;SDS011;22617;43.690;27.956;2023-08-20T22:58:22;6.35;;;4.10;;
18695;SDS011;22617;43.690;27.956;2023-08-20T23:03:25;7.93;;;4.97;;
18695;SDS011;22617;43.690;27.956;2023-08-20T23:08:30;8.63;;;4.95;;
18695;SDS011;22617;43.690;27.956;2023-08-20T23:13:33;7.07;;;4.50;;
18695;SDS011;22617;43.690;27.956;2023-08-20T23:18:37;8.57;;;4.65;;
18695;SDS011;22617;43.690;27.956;2023-08-20T23:23:43;5.78;;;4.30;;
18695;SDS011;22617;43.690;27.956;2023-08-20T23:28:47;8.55;;;4.80;;
18695;SDS011;22617;43.690;27.956;2023-08-20T23:33:50;8.70;;;4.60;;
18695;SDS011;22617;43.690;27.956;2023-08-20T23:38:55;6.88;;;4.93;;
18695;SDS011;22617;43.690;27.956;2023-08-20T23:43:59;7.80;;;4.35;;
18695;SDS011;22617;43.690;27.956;2023-08-20T23:49:03;6.80;;;4.55;;
18695;SDS011;22617;43.690;27.956;2023-08-20T23:54:08;8.18;;;5.32;;
18695;SDS011;22617;43.690;27.956;2023-08-20T23:59:11;8.60;;;4.70;;
